Time;durP1;ratioP1;P1;durP2;ratioP2;P2;SDS_P1;SDS_P2;PMS_P1;PMS_P2;Temp;Humidity;BMP_temperature;BMP_pressure;BME280_temperature;BME280_humidity;BME280_pressure;Samples;Min_cycle;Max_cycle;Signal;HPM_P1;HPM_P2
2022/01/09 00:00:16;;;;;;;;;;;;;;;0.54;74.00;97192.19;1634112;87;24457;-85
2022/01/09 00:02:43;;;;;;;;;;;;;;;0.57;74.08;97185.58;1633884;87;20278;-85
2022/01/09 00:05:11;;;;;;;;;;;;;;;0.59;74.13;97188.09;1634119;87;24911;-85
2022/01/09 00:07:40;;;;;;;;;;;;;;;0.54;74.12;97177.19;1634144;86;21957;-85
2022/01/09 00:10:06;;;;;;;;;;;;;;;0.49;74.13;97181.73;1636131;86;25963;-83
2022/01/09 00:12:33;;;;;;;;;;;;;;;0.48;74.14;97175.75;1630653;86;24603;-83
2022/01/09 00:14:59;;;;;;;;;;;;;;;0.46;74.13;97178.84;1633230;86;20630;-83
2022/01/09 00:17:25;;;;;;;;;;;;;;;0.36;74.09;97172.05;1632700;86;24714;-83
2022/01/09 00:19:52;;;;;;;;;;;;;;;0.34;74.10;97175.59;1623137;86;21967;-85
2022/01/09 00:22:44;;;;;;;;;;;;;;;0.27;74.09;97168.62;1622209;87;21670;-85
2022/01/09 00:25:10;;;;;;;;;;;;;;;0.27;74.10;97173.77;1622797;87;24531;-85
2022/01/09 00:27:36;;;;;;;;;;;;;;;0.25;74.09;97165.76;1622806;86;20260;-82
2022/01/09 00:30:08;;;;;;;;;;;;;;;0.26;74.14;97161.84;1619100;87;24789;-82
2022/01/09 00:32:35;;;;;;;;;;;;;;;0.27;74.22;97157.04;1618579;87;22852;-85
2022/01/09 00:35:01;;;;;;;;;;;;;;;0.26;74.26;97155.85;1620762;87;26152;-85
2022/01/09 00:37:27;;;;;;;;;;;;;;;0.21;74.27;97156.09;1622345;87;24569;-85
2022/01/09 00:39:57;;;;;;;;;;;;;;;0.19;74.30;97151.45;1622335;87;20219;-85
2022/01/09 00:42:23;;;;;;;;;;;;;;;0.17;74.33;97148.11;1622155;87;24927;-85
2022/01/09 00:44:50;;;;;;;;;;;;;;;0.21;74.38;97149.66;1618813;87;21992;-85
2022/01/09 00:47:17;;;;;;;;;;;;;;;0.18;74.42;97145.92;1620835;87;26006;-87
2022/01/09 00:49:43;;;;;;;;;;;;;;;0.19;74.47;97139.05;1621292;87;24514;-87
2022/01/09 00:52:09;;;;;;;;;;;;;;;0.11;74.52;97129.13;1621754;87;20632;-86
2022/01/09 00:54:35;;;;;;;;;;;;;;;0.17;74.52;97144.70;1618927;87;25565;-86
2022/01/09 00:57:01;;;;;;;;;;;;;;;0.17;74.57;97141.69;1620460;87;22057;-86
2022/01/09 00:59:27;;;;;;;;;;;;;;;0.19;74.64;97139.05;1622315;87;26841;-86
2022/01/09 01:01:53;;;;;;;;;;;;;;;0.19;74.70;97129.59;1620804;87;25314;-82
2022/01/09 01:04:19;;;;;;;;;;;;;;;0.18;74.75;97125.34;1619133;87;20238;-82
2022/01/09 01:06:45;;;;;;;;;;;;;;;0.18;74.79;97126.63;1620147;87;20398;-82
2022/01/09 01:09:11;;;;;;;;;;;;;;;0.17;74.84;97127.54;1622400;87;20321;-82
2022/01/09 01:11:37;;;;;;;;;;;;;;;0.11;74.85;97121.41;1619625;87;26058;-82
2022/01/09 01:14:03;;;;;;;;;;;;;;;0.09;74.85;97123.23;1621566;87;24527;-86
2022/01/09 01:16:30;;;;;;;;;;;;;;;0.16;74.93;97119.92;1622438;87;20250;-86
2022/01/09 01:19:02;;;;;;;;;;;;;;;0.15;74.99;97112.66;1622347;87;25434;-86
2022/01/09 01:21:32;;;;;;;;;;;;;;;0.17;75.05;97110.81;1622558;88;21996;-85
2022/01/09 01:23:58;;;;;;;;;;;;;;;0.18;75.11;97106.06;1620686;88;26085;-87
2022/01/09 01:26:24;;;;;;;;;;;;;;;0.19;75.16;97100.46;1622712;88;24583;-87
2022/01/09 01:28:50;;;;;;;;;;;;;;;0.20;75.21;97095.70;1604092;88;20203;-87
2022/01/09 01:31:16;;;;;;;;;;;;;;;0.14;75.21;97078.83;1622543;88;24980;-87
2022/01/09 01:33:42;;;;;;;;;;;;;;;0.07;75.16;97077.47;1622589;86;22000;-83
2022/01/09 01:36:10;;;;;;;;;;;;;;;0.01;75.17;97073.91;1622502;88;26042;-86
2022/01/09 01:39:10;;;;;;;;;;;;;;;-0.09;75.12;97066.28;1621928;88;24733;-86
2022/01/09 01:41:36;;;;;;;;;;;;;;;-0.10;75.13;97067.18;1621611;87;20251;-86
2022/01/09 01:44:03;;;;;;;;;;;;;;;-0.11;75.21;97065.54;1604065;88;24547;-86
2022/01/09 01:46:29;;;;;;;;;;;;;;;-0.11;75.24;97061.69;1622968;88;21972;-83
2022/01/09 01:48:58;;;;;;;;;;;;;;;-0.11;75.30;97067.63;1622409;88;25985;-82
2022/01/09 01:51:49;;;;;;;;;;;;;;;-0.15;75.32;97059.70;1622944;87;25134;-84
2022/01/09 01:54:16;;;;;;;;;;;;;;;-0.10;75.41;97068.46;1620837;87;20196;-87
2022/01/09 01:56:42;;;;;;;;;;;;;;;-0.08;75.50;97055.09;1622533;87;24742;-86
2022/01/09 01:59:10;;;;;;;;;;;;;;;-0.09;75.56;97056.83;1622361;87;22201;-87
2022/01/09 02:01:36;;;;;;;;;;;;;;;-0.09;75.63;97054.70;1622920;87;26049;-87
2022/01/09 02:04:03;;;;;;;;;;;;;;;-0.08;75.71;97041.78;1621952;88;24383;-83
2022/01/09 02:06:35;;;;;;;;;;;;;;;-0.08;75.79;97035.36;1622735;88;20236;-87
2022/01/09 02:09:04;;;;;;;;;;;;;;;-0.04;75.88;97033.00;1624223;87;24828;-83
2022/01/09 02:11:31;;;;;;;;;;;;;;;0.01;76.01;97030.19;1621720;87;22263;-83
2022/01/09 02:13:58;;;;;;;;;;;;;;;0.05;76.10;97029.61;1623691;87;25955;-87
2022/01/09 02:16:24;;;;;;;;;;;;;;;0.06;76.19;97026.09;1620708;88;24458;-87
2022/01/09 02:18:51;;;;;;;;;;;;;;;0.04;76.25;97014.63;1628507;87;20263;-86
2022/01/09 02:21:17;;;;;;;;;;;;;;;0.07;76.32;97016.20;1648445;87;24812;-83
2022/01/09 02:23:45;;;;;;;;;;;;;;;0.08;76.38;97008.41;1648918;85;21963;-84
2022/01/09 02:26:11;;;;;;;;;;;;;;;0.13;76.45;97008.17;1648609;87;26017;-86
2022/01/09 02:28:38;;;;;;;;;;;;;;;0.06;76.47;97006.36;1648434;87;24521;-86
2022/01/09 02:31:04;;;;;;;;;;;;;;;0.02;76.46;97011.74;1648542;87;20297;-86
2022/01/09 02:33:30;;;;;;;;;;;;;;;0.00;76.47;96998.50;1649429;85;24827;-86
2022/01/09 02:35:56;;;;;;;;;;;;;;;0.05;76.49;96998.75;1648535;87;21937;-85
2022/01/09 02:38:22;;;;;;;;;;;;;;;-0.01;76.46;96989.16;1648076;86;26032;-85
2022/01/09 02:40:52;;;;;;;;;;;;;;;-0.10;76.41;96987.02;1647732;85;24479;-86
2022/01/09 02:43:19;;;;;;;;;;;;;;;-0.11;76.42;96994.84;1648529;86;20247;-88
2022/01/09 02:45:49;;;;;;;;;;;;;;;-0.10;76.43;96990.05;1648188;87;24776;-88
2022/01/09 02:48:13;;;;;;;;;;;;;;;-0.09;76.49;96987.86;1646735;87;22056;-88
2022/01/09 02:50:44;;;;;;;;;;;;;;;-0.10;76.53;96984.91;1648562;86;26572;-87
2022/01/09 02:53:15;;;;;;;;;;;;;;;-0.16;76.55;96978.78;1648890;85;24573;-87
2022/01/09 02:55:43;;;;;;;;;;;;;;;-0.13;76.59;96973.50;1648380;87;20473;-86
2022/01/09 02:58:09;;;;;;;;;;;;;;;-0.12;76.62;96970.86;1648612;87;24837;-83
2022/01/09 03:00:37;;;;;;;;;;;;;;;-0.08;76.68;96961.24;1648997;87;21904;-87
2022/01/09 03:03:03;;;;;;;;;;;;;;;-0.12;76.72;96952.03;1649028;87;26588;-86
2022/01/09 03:05:29;;;;;;;;;;;;;;;-0.11;76.76;96953.70;1648697;87;24526;-86
2022/01/09 03:07:57;;;;;;;;;;;;;;;-0.09;76.79;96958.30;1650592;85;20345;-86
2022/01/09 03:10:24;;;;;;;;;;;;;;;-0.07;76.86;96947.48;1629656;87;25460;-83
2022/01/09 03:12:51;;;;;;;;;;;;;;;-0.09;76.89;96947.55;1650168;85;22003;-83
2022/01/09 03:15:17;;;;;;;;;;;;;;;-0.14;76.85;96951.27;1648462;87;26001;-87
2022/01/09 03:17:44;;;;;;;;;;;;;;;-0.14;76.86;96943.56;1648769;87;24498;-87
2022/01/09 03:20:12;;;;;;;;;;;;;;;-0.20;76.81;96944.70;1648362;86;20445;-84
2022/01/09 03:22:39;;;;;;;;;;;;;;;-0.27;76.77;96943.34;1646359;87;24856;-86
2022/01/09 03:25:14;;;;;;;;;;;;;;;-0.29;76.73;96940.48;1652028;85;22192;-86
2022/01/09 03:27:41;;;;;;;;;;;;;;;-0.37;76.73;96942.14;1648150;87;26353;-82
2022/01/09 03:30:09;;;;;;;;;;;;;;;-0.40;76.69;96947.91;1648772;87;24504;-83
2022/01/09 03:32:39;;;;;;;;;;;;;;;-0.43;76.72;96951.00;1648980;87;20278;-83
2022/01/09 03:35:07;;;;;;;;;;;;;;;-0.43;76.75;96945.02;1646919;87;24895;-84
2022/01/09 03:37:33;;;;;;;;;;;;;;;-0.37;76.83;96947.73;1648877;87;21973;-84
2022/01/09 03:40:01;;;;;;;;;;;;;;;-0.35;76.90;96950.63;1649118;85;26037;-84
2022/01/09 03:42:27;;;;;;;;;;;;;;;-0.34;76.92;96945.03;1637243;86;25408;-83
2022/01/09 03:44:55;;;;;;;;;;;;;;;-0.34;76.98;96946.31;1616075;88;20323;-87
2022/01/09 03:47:22;;;;;;;;;;;;;;;-0.33;77.05;96947.53;1620817;88;24804;-86
2022/01/09 03:49:50;;;;;;;;;;;;;;;-0.34;77.13;96948.44;1609344;87;22080;-86
2022/01/09 03:52:16;;;;;;;;;;;;;;;-0.37;77.16;96938.74;1604350;87;26868;-87
2022/01/09 03:54:43;;;;;;;;;;;;;;;-0.45;77.15;96933.56;1603952;87;24448;-84
2022/01/09 03:57:09;;;;;;;;;;;;;;;-0.57;77.13;96939.75;1609485;87;20228;-84
2022/01/09 03:59:35;;;;;;;;;;;;;;;-0.59;77.15;96930.83;1616244;87;24788;-84
2022/01/09 04:02:05;;;;;;;;;;;;;;;-0.58;77.21;96920.93;1619186;87;21937;-86
2022/01/09 04:04:31;;;;;;;;;;;;;;;-0.58;77.27;96926.07;1640373;86;26060;-86
2022/01/09 04:06:59;;;;;;;;;;;;;;;-0.57;77.35;96923.05;1638338;86;20278;-86
2022/01/09 04:09:37;;;;;;;;;;;;;;;-0.59;77.40;96921.84;1614371;86;20445;-86
2022/01/09 04:12:03;;;;;;;;;;;;;;;-0.59;77.48;96919.72;1625532;86;20365;-83
2022/01/09 04:14:25;;;;;;;;;;;;;;;-0.60;77.54;96927.07;1624887;86;22298;-86
2022/01/09 04:16:51;;;;;;;;;;;;;;;-0.61;77.61;96913.84;1641310;86;26063;-86
2022/01/09 04:19:17;;;;;;;;;;;;;;;-0.63;77.69;96921.62;1634928;86;24502;-86
2022/01/09 04:21:43;;;;;;;;;;;;;;;-0.65;77.71;96927.72;1640355;86;20779;-87
2022/01/09 04:24:10;;;;;;;;;;;;;;;-0.70;77.75;96916.39;1638424;86;24781;-86
2022/01/09 04:26:36;;;;;;;;;;;;;;;-0.76;77.76;96919.27;1644166;86;22227;-83
2022/01/09 04:29:03;;;;;;;;;;;;;;;-0.86;77.75;96910.35;1643017;86;26055;-83
2022/01/09 04:31:29;;;;;;;;;;;;;;;-0.97;77.75;96912.61;1640967;86;24504;-82
2022/01/09 04:33:55;;;;;;;;;;;;;;;-1.03;77.77;96897.05;1645629;86;20233;-82
2022/01/09 04:36:23;;;;;;;;;;;;;;;-1.05;77.81;96907.03;1634667;86;24822;-82
2022/01/09 04:38:49;;;;;;;;;;;;;;;-1.01;77.94;96903.41;1644318;86;21961;-82
2022/01/09 04:41:15;;;;;;;;;;;;;;;-1.02;78.01;96906.42;1642861;86;25826;-82
2022/01/09 04:43:43;;;;;;;;;;;;;;;-1.02;78.10;96914.13;1610518;87;25337;-82
2022/01/09 04:46:21;;;;;;;;;;;;;;;-1.05;78.18;96914.28;1621178;87;20347;-82
2022/01/09 04:48:45;;;;;;;;;;;;;;;-1.11;78.23;96907.32;1610903;87;25642;-82
2022/01/09 04:51:13;;;;;;;;;;;;;;;-1.17;78.27;96916.14;1614304;87;22181;-86
2022/01/09 04:53:39;;;;;;;;;;;;;;;-1.16;78.38;96912.68;1617122;87;26196;-86
2022/01/09 04:56:05;;;;;;;;;;;;;;;-1.16;78.47;96912.68;1614817;88;24456;-86
2022/01/09 04:58:31;;;;;;;;;;;;;;;-1.20;78.55;96909.05;1616359;88;20189;-86
2022/01/09 05:00:57;;;;;;;;;;;;;;;-1.20;78.64;96918.03;1616148;88;24328;-86
2022/01/09 05:03:25;;;;;;;;;;;;;;;-1.19;78.78;96917.94;1618487;88;21925;-86
2022/01/09 05:05:51;;;;;;;;;;;;;;;-1.16;78.90;96907.55;1606346;88;26155;-86
2022/01/09 05:08:18;;;;;;;;;;;;;;;-1.13;79.04;96911.69;1604805;87;24510;-86
2022/01/09 05:10:44;;;;;;;;;;;;;;;-1.17;79.15;96914.02;1612096;88;20237;-87
2022/01/09 05:13:10;;;;;;;;;;;;;;;-1.18;79.25;96916.20;1634931;86;24808;-87
2022/01/09 05:15:36;;;;;;;;;;;;;;;-1.12;79.39;96908.22;1634821;86;22790;-84
2022/01/09 05:18:04;;;;;;;;;;;;;;;-1.10;79.52;96905.97;1614933;87;26047;-84
2022/01/09 05:20:30;;;;;;;;;;;;;;;-1.06;79.65;96909.21;1626426;86;25113;-86
2022/01/09 05:22:56;;;;;;;;;;;;;;;-1.07;79.77;96912.68;1622908;86;20202;-85
2022/01/09 05:25:22;;;;;;;;;;;;;;;-1.09;79.89;96906.33;1618822;86;24838;-86
2022/01/09 05:27:49;;;;;;;;;;;;;;;-1.09;79.99;96911.46;1618614;86;22070;-85
2022/01/09 05:30:17;;;;;;;;;;;;;;;-1.04;80.14;96912.09;1635270;86;26835;-85
2022/01/09 05:32:43;;;;;;;;;;;;;;;-1.02;80.28;96908.16;1633984;86;25026;-85
2022/01/09 05:35:16;;;;;;;;;;;;;;;-1.02;80.35;96916.69;1634920;86;20512;-85
2022/01/09 05:37:42;;;;;;;;;;;;;;;-1.05;80.43;96914.73;1635270;86;25001;-85
2022/01/09 05:40:08;;;;;;;;;;;;;;;-1.05;80.53;96916.02;1617927;86;21881;-83
2022/01/09 05:42:37;;;;;;;;;;;;;;;-1.09;80.58;96919.64;1633634;87;26286;-82
2022/01/09 05:45:07;;;;;;;;;;;;;;;-1.06;80.69;96925.90;1634000;86;25212;-82
2022/01/09 05:47:32;;;;;;;;;;;;;;;-1.04;80.79;96924.94;1635242;86;20154;-83
2022/01/09 05:50:00;;;;;;;;;;;;;;;-1.08;80.85;96916.98;1635134;86;24850;-83
2022/01/09 05:52:26;;;;;;;;;;;;;;;-1.08;80.90;96914.41;1616893;88;21893;-84
2022/01/09 05:54:52;;;;;;;;;;;;;;;-1.09;80.98;96923.49;1634737;86;26136;-84
2022/01/09 05:57:18;;;;;;;;;;;;;;;-1.04;81.09;96924.94;1633816;86;24485;-84
2022/01/09 05:59:45;;;;;;;;;;;;;;;-1.02;81.20;96913.29;1633922;87;20285;-84
2022/01/09 06:02:11;;;;;;;;;;;;;;;-1.02;81.27;96915.85;1635315;86;24804;-85
2022/01/09 06:04:41;;;;;;;;;;;;;;;-1.02;81.38;96903.02;1636154;86;21799;-84
2022/01/09 06:07:10;;;;;;;;;;;;;;;-1.02;81.45;96906.87;1634300;86;26708;-84
2022/01/09 06:09:36;;;;;;;;;;;;;;;-1.03;81.53;96912.91;1634212;87;24443;-84
2022/01/09 06:12:02;;;;;;;;;;;;;;;-1.03;81.59;96911.62;1634003;87;20329;-84
2022/01/09 06:14:28;;;;;;;;;;;;;;;-1.05;81.65;96907.86;1634168;86;24670;-88
2022/01/09 06:16:54;;;;;;;;;;;;;;;-1.07;81.67;96910.11;1634434;86;21963;-88
2022/01/09 06:19:20;;;;;;;;;;;;;;;-1.06;81.75;96906.20;1634091;86;26035;-87
2022/01/09 06:21:49;;;;;;;;;;;;;;;-1.05;81.80;96906.58;1623924;86;24474;-83
2022/01/09 06:24:15;;;;;;;;;;;;;;;-1.01;81.90;96909.82;1622779;88;20203;-83
2022/01/09 06:26:41;;;;;;;;;;;;;;;-1.00;81.96;96910.20;1622316;88;24429;-83
2022/01/09 06:29:07;;;;;;;;;;;;;;;-1.01;82.01;96911.94;1620892;88;21956;-86
2022/01/09 06:31:33;;;;;;;;;;;;;;;-1.02;82.05;96902.56;1625421;86;25986;-86
2022/01/09 06:33:59;;;;;;;;;;;;;;;-1.07;82.06;96898.56;1622463;88;24468;-86
2022/01/09 06:36:25;;;;;;;;;;;;;;;-1.09;82.11;96899.11;1603743;88;20816;-85
2022/01/09 06:38:51;;;;;;;;;;;;;;;-1.10;82.12;96900.01;1622766;88;24729;-86
2022/01/09 06:41:17;;;;;;;;;;;;;;;-1.09;82.18;96904.24;1622556;88;21940;-86
2022/01/09 06:43:44;;;;;;;;;;;;;;;-1.14;82.19;96894.17;1622666;87;26037;-86
2022/01/09 06:46:10;;;;;;;;;;;;;;;-1.17;82.20;96892.21;1622747;86;24425;-84
2022/01/09 06:48:36;;;;;;;;;;;;;;;-1.18;82.25;96889.27;1622397;87;20213;-83
2022/01/09 06:51:02;;;;;;;;;;;;;;;-1.23;82.26;96886.09;1624963;86;24732;-83
2022/01/09 06:53:29;;;;;;;;;;;;;;;-1.21;82.32;96890.70;1622517;88;22032;-82
2022/01/09 06:55:55;;;;;;;;;;;;;;;-1.19;82.40;96879.89;1622900;88;25967;-82
2022/01/09 06:58:21;;;;;;;;;;;;;;;-1.20;82.48;96875.69;1622105;88;24588;-82
2022/01/09 07:00:48;;;;;;;;;;;;;;;-1.17;82.57;96871.68;1622225;88;20366;-83
2022/01/09 07:03:14;;;;;;;;;;;;;;;-1.16;82.65;96875.47;1622815;87;24795;-86
2022/01/09 07:05:44;;;;;;;;;;;;;;;-1.12;82.74;96877.42;1624102;87;21991;-86
2022/01/09 07:08:10;;;;;;;;;;;;;;;-1.11;82.79;96876.52;1621938;87;25880;-86
2022/01/09 07:10:36;;;;;;;;;;;;;;;-1.09;82.90;96876.01;1622757;88;24643;-86
2022/01/09 07:13:04;;;;;;;;;;;;;;;-1.06;82.98;96874.11;1622400;88;20215;-87
2022/01/09 07:15:30;;;;;;;;;;;;;;;-1.06;83.03;96875.84;1622343;88;24760;-86
2022/01/09 07:17:57;;;;;;;;;;;;;;;-1.06;83.08;96874.56;1622990;87;22429;-86
2022/01/09 07:20:23;;;;;;;;;;;;;;;-1.08;83.11;96875.08;1626310;86;25963;-84
2022/01/09 07:22:52;;;;;;;;;;;;;;;-1.07;83.19;96875.01;1647176;87;25287;-84
2022/01/09 07:25:18;;;;;;;;;;;;;;;-1.10;83.20;96862.78;1648219;87;20265;-83
2022/01/09 07:27:47;;;;;;;;;;;;;;;-1.09;83.28;96863.97;1650853;87;20359;-87
2022/01/09 07:30:13;;;;;;;;;;;;;;;-1.08;83.34;96861.80;1648373;87;22073;-87
2022/01/09 07:32:40;;;;;;;;;;;;;;;-1.06;83.39;96868.14;1648245;87;25955;-87
2022/01/09 07:35:09;;;;;;;;;;;;;;;-1.03;83.47;96862.84;1648515;87;24536;-83
2022/01/09 07:37:36;;;;;;;;;;;;;;;-1.01;83.56;96856.74;1648271;87;20227;-83
2022/01/09 07:40:03;;;;;;;;;;;;;;;-1.01;83.62;96858.48;1649624;85;24727;-87
2022/01/09 07:42:29;;;;;;;;;;;;;;;-1.01;83.68;96859.76;1651223;85;21970;-87
2022/01/09 07:44:55;;;;;;;;;;;;;;;-0.95;83.76;96857.73;1648798;87;26711;-86
2022/01/09 07:47:28;;;;;;;;;;;;;;;-0.92;83.85;96855.00;1648067;87;24342;-87
2022/01/09 07:49:54;;;;;;;;;;;;;;;-0.91;83.93;96857.11;1648231;87;20239;-86
2022/01/09 07:52:20;;;;;;;;;;;;;;;-0.85;84.02;96854.24;1628714;87;26524;-87
2022/01/09 07:54:46;;;;;;;;;;;;;;;-0.82;84.09;96856.68;1648503;87;22115;-82
2022/01/09 07:57:12;;;;;;;;;;;;;;;-0.79;84.17;96851.83;1649760;85;25523;-82
2022/01/09 07:59:38;;;;;;;;;;;;;;;-0.76;84.22;96839.65;1648404;86;24569;-86
2022/01/09 08:02:05;;;;;;;;;;;;;;;-0.70;84.29;96848.33;1648239;87;20235;-86
2022/01/09 08:04:33;;;;;;;;;;;;;;;-0.68;84.36;96849.55;1649965;85;24757;-85
2022/01/09 08:06:59;;;;;;;;;;;;;;;-0.69;84.38;96848.72;1647110;87;21935;-85
2022/01/09 08:09:25;;;;;;;;;;;;;;;-0.64;84.42;96845.91;1650831;85;26814;-84
2022/01/09 08:11:51;;;;;;;;;;;;;;;-0.59;84.47;96842.20;1647900;86;24469;-84
2022/01/09 08:14:17;;;;;;;;;;;;;;;-0.58;84.48;96841.30;1631348;87;20592;-84
2022/01/09 08:16:43;;;;;;;;;;;;;;;-0.60;84.48;96843.59;1648571;87;24786;-85
2022/01/09 08:19:09;;;;;;;;;;;;;;;-0.70;84.46;96818.80;1648575;86;21929;-85
2022/01/09 08:21:35;;;;;;;;;;;;;;;-0.56;84.49;96835.64;1641080;86;25959;-84
2022/01/09 08:24:02;;;;;;;;;;;;;;;-0.51;84.54;96827.23;1634040;86;24557;-84
2022/01/09 08:26:33;;;;;;;;;;;;;;;-0.45;84.57;96828.66;1636016;86;20255;-84
2022/01/09 08:28:59;;;;;;;;;;;;;;;-0.40;84.59;96825.84;1637484;86;24817;-87
2022/01/09 08:31:26;;;;;;;;;;;;;;;-0.37;84.59;96826.95;1634619;86;22031;-87
2022/01/09 08:33:58;;;;;;;;;;;;;;;-0.32;84.60;96824.97;1634190;86;26903;-87
2022/01/09 08:36:21;;;;;;;;;;;;;;;-0.28;84.61;96822.19;1632770;86;24530;-84
2022/01/09 08:38:48;;;;;;;;;;;;;;;-0.25;84.59;96821.18;1613981;87;20222;-83
2022/01/09 08:41:14;;;;;;;;;;;;;;;-0.23;84.59;96821.49;1634119;86;24574;-84
2022/01/09 08:43:40;;;;;;;;;;;;;;;-0.22;84.52;96822.33;1634051;86;22027;-83
2022/01/09 08:46:07;;;;;;;;;;;;;;;-0.20;84.49;96817.46;1634152;86;26051;-83
2022/01/09 08:48:33;;;;;;;;;;;;;;;-0.16;84.47;96816.83;1635253;86;24408;-83
2022/01/09 08:50:59;;;;;;;;;;;;;;;-0.15;84.44;96819.33;1633944;87;20418;-83
2022/01/09 08:53:25;;;;;;;;;;;;;;;-0.21;84.41;96805.97;1634080;87;24709;-86
2022/01/09 08:55:51;;;;;;;;;;;;;;;-0.08;84.41;96817.27;1634400;86;22030;-87
2022/01/09 08:58:17;;;;;;;;;;;;;;;-0.03;84.38;96815.28;1634529;86;25991;-87
2022/01/09 09:00:43;;;;;;;;;;;;;;;0.02;84.36;96812.45;1634414;86;24426;-87
2022/01/09 09:03:09;;;;;;;;;;;;;;;0.06;84.33;96810.91;1635119;86;20247;-85
2022/01/09 09:05:36;;;;;;;;;;;;;;;0.10;84.30;96807.74;1635021;86;24769;-84
2022/01/09 09:08:03;;;;;;;;;;;;;;;0.17;84.26;96803.91;1634417;86;23445;-84
2022/01/09 09:10:29;;;;;;;;;;;;;;;0.24;84.26;96812.50;1633986;87;26104;-83
2022/01/09 09:12:55;;;;;;;;;;;;;;;0.28;84.26;96811.86;1634273;86;24424;-84
2022/01/09 09:15:22;;;;;;;;;;;;;;;0.30;84.21;96801.05;1634963;86;20297;-88
2022/01/09 09:17:48;;;;;;;;;;;;;;;0.35;84.16;96806.76;1632338;88;24832;-83
2022/01/09 09:20:14;;;;;;;;;;;;;;;0.38;84.09;96802.27;1635661;86;22123;-87
2022/01/09 09:22:40;;;;;;;;;;;;;;;0.39;83.99;96794.92;1622170;86;25952;-86
2022/01/09 09:25:07;;;;;;;;;;;;;;;0.47;83.91;96794.96;1622459;88;24099;-84
2022/01/09 09:27:33;;;;;;;;;;;;;;;0.56;83.85;96797.02;1622947;88;20248;-83
2022/01/09 09:30:02;;;;;;;;;;;;;;;0.60;83.76;96794.17;1622606;87;24742;-83
2022/01/09 09:32:27;;;;;;;;;;;;;;;0.64;83.69;96796.97;1623032;86;22089;-83
2022/01/09 09:34:54;;;;;;;;;;;;;;;0.68;83.59;96793.30;1622690;88;26046;-82
2022/01/09 09:37:20;;;;;;;;;;;;;;;0.78;83.55;96798.74;1624271;86;25070;-83
2022/01/09 09:39:48;;;;;;;;;;;;;;;0.86;83.49;96800.44;1623732;86;20255;-82
2022/01/09 09:42:15;;;;;;;;;;;;;;;0.94;83.42;96795.66;1622897;88;24884;-82
2022/01/09 09:44:41;;;;;;;;;;;;;;;1.03;83.36;96792.57;1622750;88;21948;-82
2022/01/09 09:47:07;;;;;;;;;;;;;;;1.02;83.24;96790.08;1624290;86;25950;-82
2022/01/09 09:49:33;;;;;;;;;;;;;;;0.99;83.09;96787.20;1623956;86;24534;-87
2022/01/09 09:52:00;;;;;;;;;;;;;;;1.01;82.93;96779.39;1622286;88;20314;-86
2022/01/09 09:54:26;;;;;;;;;;;;;;;1.01;82.72;96797.42;1622492;87;24742;-82
2022/01/09 09:56:55;;;;;;;;;;;;;;;1.05;82.58;96781.70;1620389;86;21976;-83
2022/01/09 09:59:28;;;;;;;;;;;;;;;1.10;82.46;96800.74;1622635;88;25999;-82
2022/01/09 10:01:54;;;;;;;;;;;;;;;1.14;82.32;96807.40;1622068;87;24438;-82
2022/01/09 10:04:20;;;;;;;;;;;;;;;1.18;82.16;96810.16;1622931;88;20256;-83
2022/01/09 10:06:47;;;;;;;;;;;;;;;1.24;82.09;96808.06;1622497;88;24854;-82
2022/01/09 10:09:14;;;;;;;;;;;;;;;1.28;81.99;96808.70;1622875;88;21969;-88
2022/01/09 10:11:49;;;;;;;;;;;;;;;1.36;81.91;96805.68;1621833;87;26167;-88
2022/01/09 10:14:16;;;;;;;;;;;;;;;1.41;81.85;96803.66;1618151;86;24478;-84
2022/01/09 10:16:44;;;;;;;;;;;;;;;1.46;81.73;96796.48;1614865;87;20620;-85
2022/01/09 10:19:10;;;;;;;;;;;;;;;1.51;81.65;96795.74;1621975;87;24828;-83
2022/01/09 10:21:36;;;;;;;;;;;;;;;1.55;81.55;96794.63;1629232;86;22052;-83
2022/01/09 10:24:04;;;;;;;;;;;;;;;1.58;81.43;96791.39;1634515;86;26253;-88
2022/01/09 10:26:33;;;;;;;;;;;;;;;1.62;81.34;96791.60;1633165;87;25290;-86
2022/01/09 10:28:59;;;;;;;;;;;;;;;1.66;81.24;96785.78;1634139;86;20258;-87
2022/01/09 10:31:26;;;;;;;;;;;;;;;1.70;81.14;96784.67;1634148;87;24968;-86
2022/01/09 10:34:07;;;;;;;;;;;;;;;1.69;80.98;96790.77;1632828;86;22069;-87
2022/01/09 10:36:51;;;;;;;;;;;;;;;1.75;80.84;96792.13;1631912;88;26033;-87
2022/01/09 10:39:18;;;;;;;;;;;;;;;1.75;80.66;96788.25;1633737;86;24463;-87
2022/01/09 10:42:00;;;;;;;;;;;;;;;1.74;80.46;96781.47;1632367;86;20318;-88
2022/01/09 10:44:30;;;;;;;;;;;;;;;1.79;80.32;96784.13;1627298;86;24863;-88
2022/01/09 10:46:57;;;;;;;;;;;;;;;1.87;80.18;96790.09;1633794;86;22159;-87
2022/01/09 10:49:23;;;;;;;;;;;;;;;1.93;80.07;96788.42;1631742;86;26025;-88
2022/01/09 10:51:51;;;;;;;;;;;;;;;1.97;79.95;96789.42;1634607;85;24460;-88
2022/01/09 10:54:29;;;;;;;;;;;;;;;1.99;79.83;96783.72;1633922;86;20258;-88
2022/01/09 10:57:13;;;;;;;;;;;;;;;2.08;79.74;96789.59;1634959;86;24829;-87
2022/01/09 10:59:41;;;;;;;;;;;;;;;2.15;79.64;96795.66;1634761;86;20265;-87
2022/01/09 11:02:07;;;;;;;;;;;;;;;2.19;79.47;96800.98;1635180;86;26127;-87
2022/01/09 11:04:33;;;;;;;;;;;;;;;2.22;79.35;96787.45;1635377;86;24550;-89
2022/01/09 11:07:00;;;;;;;;;;;;;;;2.24;79.22;96792.49;1632227;86;20227;-89
2022/01/09 11:09:27;;;;;;;;;;;;;;;2.28;79.09;96787.07;1617389;86;25351;-88
2022/01/09 11:11:58;;;;;;;;;;;;;;;2.31;79.01;96783.45;1632672;88;22153;-89
2022/01/09 11:14:26;;;;;;;;;;;;;;;2.34;78.89;96787.14;1633698;86;26064;-88
2022/01/09 11:16:53;;;;;;;;;;;;;;;2.34;78.73;96785.85;1635300;86;24221;-84
2022/01/09 11:19:20;;;;;;;;;;;;;;;2.36;78.60;96784.81;1632842;86;20653;-84
2022/01/09 11:21:48;;;;;;;;;;;;;;;2.40;78.49;96775.94;1635049;86;25492;-84
2022/01/09 11:24:33;;;;;;;;;;;;;;;2.44;78.35;96776.13;1637687;86;21769;-84
2022/01/09 11:27:02;;;;;;;;;;;;;;;2.51;78.24;96784.29;1633594;87;26011;-84
2022/01/09 11:29:36;;;;;;;;;;;;;;;2.55;78.13;96781.90;1631688;86;24124;-84
2022/01/09 11:32:03;;;;;;;;;;;;;;;2.58;78.01;96777.81;1631417;86;20230;-84
2022/01/09 11:34:31;;;;;;;;;;;;;;;2.66;77.91;96774.29;1636229;86;24830;-83
2022/01/09 11:36:59;;;;;;;;;;;;;;;2.77;77.86;96783.46;1634920;86;22100;-84
2022/01/09 11:39:27;;;;;;;;;;;;;;;2.80;77.76;96778.08;1624554;86;26926;-84
2022/01/09 11:42:10;;;;;;;;;;;;;;;2.84;77.67;96785.98;1635670;86;24539;-84
2022/01/09 11:44:50;;;;;;;;;;;;;;;2.83;77.55;96789.52;1633266;88;20892;-83
2022/01/09 11:47:19;;;;;;;;;;;;;;;2.87;77.42;96784.52;1612947;88;21293;-84
2022/01/09 11:49:53;;;;;;;;;;;;;;;2.91;77.29;96789.00;1633706;86;21967;-84
2022/01/09 11:52:27;;;;;;;;;;;;;;;2.91;77.12;96787.71;1613667;87;26099;-84
2022/01/09 11:54:59;;;;;;;;;;;;;;;2.92;76.95;96781.62;1616289;86;24245;-84
2022/01/09 11:57:40;;;;;;;;;;;;;;;2.99;76.84;96776.88;1634980;85;20234;-85
2022/01/09 12:00:10;;;;;;;;;;;;;;;3.05;76.72;96782.95;1634188;87;24772;-84
2022/01/09 12:02:37;;;;;;;;;;;;;;;3.08;76.59;96782.73;1641135;85;22074;-84
2022/01/09 12:05:05;;;;;;;;;;;;;;;3.15;76.51;96781.40;1634447;86;26062;-84
2022/01/09 12:07:36;;;;;;;;;;;;;;;3.17;76.35;96779.52;1637357;86;25226;-84
2022/01/09 12:10:04;;;;;;;;;;;;;;;3.14;76.22;96778.45;1638238;85;20251;-84
2022/01/09 12:12:34;;;;;;;;;;;;;;;3.13;76.07;96778.91;1640098;86;25011;-84
2022/01/09 12:15:03;;;;;;;;;;;;;;;3.18;75.93;96781.18;1634738;86;22064;-84
2022/01/09 12:17:41;;;;;;;;;;;;;;;3.21;75.84;96780.99;1633852;86;26048;-84
2022/01/09 12:20:15;;;;;;;;;;;;;;;3.28;75.75;96775.75;1638857;86;23849;-84
2022/01/09 12:22:48;;;;;;;;;;;;;;;3.34;75.70;96778.76;1638570;85;20303;-85
2022/01/09 12:25:26;;;;;;;;;;;;;;;3.36;75.58;96774.78;1635106;86;24756;-85
2022/01/09 12:27:59;;;;;;;;;;;;;;;3.36;75.46;96775.61;1634552;86;22008;-85
2022/01/09 12:30:38;;;;;;;;;;;;;;;3.40;75.32;96774.94;1633400;87;26036;-85
2022/01/09 12:33:28;;;;;;;;;;;;;;;3.50;75.24;96775.13;1634038;87;25053;-85
2022/01/09 12:35:59;;;;;;;;;;;;;;;3.51;75.09;96771.61;1634097;86;20244;-85
2022/01/09 12:38:26;;;;;;;;;;;;;;;3.47;74.91;96777.47;1633097;86;24823;-85
2022/01/09 12:40:57;;;;;;;;;;;;;;;3.45;74.75;96776.73;1634401;86;21996;-85
2022/01/09 12:43:24;;;;;;;;;;;;;;;3.46;74.59;96777.57;1633841;87;27050;-84
2022/01/09 12:45:52;;;;;;;;;;;;;;;3.41;74.34;96775.77;1636340;86;24538;-85
2022/01/09 12:48:20;;;;;;;;;;;;;;;3.42;74.19;96772.25;1634256;86;20197;-84
2022/01/09 12:50:46;;;;;;;;;;;;;;;3.41;74.04;96771.42;1633584;86;24923;-85
2022/01/09 12:53:15;;;;;;;;;;;;;;;3.41;73.83;96774.01;1634098;86;22712;-84